createdAt,value
2023-05-22T00:02:15.998Z,99.90
2023-05-22T00:04:47.066Z,99.90
2023-05-22T00:07:18.004Z,99.90
2023-05-22T00:09:47.757Z,99.90
2023-05-22T00:12:17.008Z,99.90
2023-05-22T00:14:46.809Z,99.90
2023-05-22T00:17:16.800Z,99.90
2023-05-22T00:19:46.849Z,99.90
2023-05-22T00:22:17.652Z,99.90
2023-05-22T00:24:47.632Z,99.90
2023-05-22T00:27:17.064Z,99.90
2023-05-22T00:29:46.677Z,99.90
2023-05-22T00:32:15.962Z,99.90
2023-05-22T00:34:45.908Z,99.90
2023-05-22T00:37:16.886Z,99.90
2023-05-22T00:39:47.024Z,99.90
2023-05-22T00:42:16.652Z,99.90
2023-05-22T00:44:46.693Z,99.90
2023-05-22T00:47:16.369Z,99.90
2023-05-22T00:49:47.201Z,99.90
2023-05-22T00:52:18.645Z,99.90
2023-05-22T00:54:49.006Z,99.90
2023-05-22T00:57:19.208Z,99.90
2023-05-22T00:59:50.156Z,99.90
2023-05-22T01:02:19.458Z,99.90
2023-05-22T01:04:50.198Z,99.90
2023-05-22T01:07:21.820Z,99.90
2023-05-22T01:09:52.854Z,99.90
2023-05-22T01:12:29.268Z,99.90
2023-05-22T01:15:09.179Z,99.90
2023-05-22T01:17:48.303Z,99.90
2023-05-22T01:20:26.283Z,99.90
2023-05-22T01:23:36.871Z,99.90
2023-05-22T01:26:22.142Z,99.90
2023-05-22T01:29:15.969Z,99.90
2023-05-22T01:31:50.282Z,99.90
2023-05-22T01:34:20.319Z,99.90
2023-05-22T01:36:52.526Z,99.90
2023-05-22T01:39:22.122Z,99.90
2023-05-22T01:41:52.279Z,99.90
2023-05-22T01:44:21.704Z,99.90
2023-05-22T01:46:52.912Z,99.90
2023-05-22T01:49:22.385Z,99.90
2023-05-22T01:51:54.936Z,99.90
2023-05-22T01:54:32.378Z,99.90
2023-05-22T01:57:07.744Z,99.90
2023-05-22T01:59:46.000Z,99.90
2023-05-22T02:02:19.682Z,99.90
2023-05-22T02:04:54.579Z,99.90
2023-05-22T02:07:26.422Z,99.90
2023-05-22T02:09:58.274Z,99.90
2023-05-22T02:12:28.340Z,99.90
2023-05-22T02:14:58.008Z,99.90
2023-05-22T02:17:29.691Z,99.90
2023-05-22T02:19:59.027Z,99.90
2023-05-22T02:22:28.770Z,99.90
2023-05-22T02:24:58.168Z,99.90
2023-05-22T02:27:27.801Z,99.90
2023-05-22T02:29:57.084Z,99.90
2023-05-22T02:32:28.619Z,99.90
2023-05-22T02:34:58.923Z,99.90
2023-05-22T02:37:28.647Z,99.90
2023-05-22T02:39:58.252Z,99.90
2023-05-22T02:42:27.929Z,99.90
2023-05-22T02:44:57.304Z,99.90
2023-05-22T02:47:28.592Z,99.90
2023-05-22T02:49:58.640Z,99.90
2023-05-22T02:52:28.670Z,99.90
2023-05-22T02:54:58.191Z,99.90
2023-05-22T02:57:28.061Z,99.90
2023-05-22T02:59:57.841Z,99.90
2023-05-22T03:02:30.337Z,99.90
2023-05-22T03:05:00.038Z,99.90
2023-05-22T03:07:30.648Z,99.90
2023-05-22T03:09:59.942Z,99.90
2023-05-22T03:12:29.604Z,99.90
2023-05-22T03:14:58.972Z,99.90
2023-05-22T03:17:30.490Z,99.90
2023-05-22T03:19:59.371Z,99.90
2023-05-22T03:22:29.011Z,99.90
2023-05-22T03:24:58.306Z,99.90
2023-05-22T03:27:28.370Z,99.90
2023-05-22T03:29:57.719Z,99.90
2023-05-22T03:32:27.604Z,99.90
2023-05-22T03:34:58.870Z,99.90
2023-05-22T03:37:28.535Z,99.90
2023-05-22T03:39:57.896Z,99.90
2023-05-22T03:42:27.936Z,99.90
2023-05-22T03:44:57.182Z,99.90
2023-05-22T03:47:27.125Z,99.90
2023-05-22T03:49:57.933Z,99.90
2023-05-22T03:52:27.610Z,99.90
2023-05-22T03:54:56.989Z,99.90
2023-05-22T03:57:26.609Z,99.90
2023-05-22T03:59:55.940Z,99.90
2023-05-22T04:02:26.562Z,99.90
2023-05-22T04:04:56.077Z,99.90
2023-05-22T04:07:27.657Z,99.90
2023-05-22T04:09:57.111Z,99.90
2023-05-22T04:12:26.775Z,99.90
2023-05-22T04:14:56.089Z,99.90
2023-05-22T04:17:25.772Z,99.90
2023-05-22T04:19:55.028Z,99.90
2023-05-22T04:22:24.790Z,99.90
2023-05-22T04:24:55.548Z,99.90
2023-05-22T04:27:25.306Z,99.90
2023-05-22T04:29:55.184Z,99.90
2023-05-22T04:32:25.112Z,99.90
2023-05-22T04:34:54.533Z,99.90
2023-05-22T04:37:25.045Z,99.90
2023-05-22T04:39:58.596Z,99.90
2023-05-22T04:42:28.463Z,99.90
2023-05-22T04:44:58.414Z,99.90
2023-05-22T04:47:29.246Z,99.90
2023-05-22T04:49:58.799Z,99.90
2023-05-22T04:52:28.514Z,99.90
2023-05-22T04:55:00.878Z,99.90
2023-05-22T04:57:31.306Z,99.90
2023-05-22T05:00:00.568Z,99.90
2023-05-22T05:02:30.234Z,99.90
2023-05-22T05:04:59.567Z,99.90
2023-05-22T05:07:29.693Z,99.90
2023-05-22T05:10:00.478Z,99.90
2023-05-22T05:12:30.235Z,99.90
2023-05-22T05:14:59.609Z,99.90
2023-05-22T05:17:29.665Z,99.90
2023-05-22T05:19:58.976Z,99.90
2023-05-22T05:22:29.471Z,99.90
2023-05-22T05:25:00.610Z,99.90
2023-05-22T05:27:30.316Z,99.90
2023-05-22T05:29:59.593Z,99.90
2023-05-22T05:32:29.965Z,99.90
2023-05-22T05:34:59.752Z,99.90
2023-05-22T05:37:29.462Z,99.90
2023-05-22T05:40:00.264Z,99.90
2023-05-22T05:42:29.949Z,99.90
2023-05-22T05:44:59.387Z,99.90
2023-05-22T05:47:30.029Z,99.90
2023-05-22T05:49:59.751Z,99.90
2023-05-22T05:52:33.114Z,99.90
2023-05-22T05:55:03.916Z,99.90
2023-05-22T05:57:33.655Z,99.90
2023-05-22T06:00:02.927Z,99.90
2023-05-22T06:02:32.769Z,99.90
2023-05-22T06:05:02.562Z,99.90
2023-05-22T06:07:32.335Z,99.90
2023-05-22T06:10:03.489Z,99.90
2023-05-22T06:12:33.652Z,99.90
2023-05-22T06:15:04.341Z,99.90
2023-05-22T06:17:34.009Z,99.90
2023-05-22T06:20:04.608Z,99.90
2023-05-22T06:22:34.574Z,99.90
2023-05-22T06:25:05.976Z,99.90
2023-05-22T06:27:35.994Z,99.90
2023-05-22T06:30:05.648Z,99.90
2023-05-22T06:32:35.995Z,99.90
2023-05-22T06:35:05.789Z,99.90
2023-05-22T06:37:37.040Z,99.90
2023-05-22T06:40:08.344Z,99.90
2023-05-22T06:42:37.984Z,99.90
2023-05-22T06:45:08.708Z,99.90
2023-05-22T06:47:38.560Z,99.90
2023-05-22T06:50:10.784Z,99.90
2023-05-22T06:52:40.934Z,99.90
2023-05-22T06:55:12.298Z,99.90
2023-05-22T06:57:42.107Z,99.90
2023-05-22T07:00:13.100Z,99.90
2023-05-22T07:02:43.049Z,99.90
2023-05-22T07:05:12.734Z,99.90
2023-05-22T07:07:42.997Z,99.90
2023-05-22T07:10:13.984Z,99.90
2023-05-22T07:12:43.686Z,99.90
2023-05-22T07:15:14.882Z,99.90
2023-05-22T07:17:44.615Z,99.90
2023-05-22T07:20:16.227Z,99.90
2023-05-22T07:22:46.093Z,99.90
2023-05-22T07:25:16.817Z,99.90
2023-05-22T07:27:47.064Z,99.90
2023-05-22T07:30:16.746Z,99.90
2023-05-22T07:32:46.422Z,99.90
2023-05-22T07:35:16.064Z,99.90
2023-05-22T07:37:46.070Z,99.90
2023-05-22T07:40:17.184Z,99.90
2023-05-22T07:42:46.841Z,99.90
2023-05-22T07:45:16.156Z,99.90
2023-05-22T07:47:45.826Z,99.90
2023-05-22T07:50:15.146Z,99.90
2023-05-22T07:52:45.643Z,99.90
2023-05-22T07:55:16.659Z,99.90
2023-05-22T07:57:46.479Z,99.90
2023-05-22T08:00:17.284Z,99.90
2023-05-22T08:02:47.109Z,99.90
2023-05-22T08:05:16.813Z,99.90
2023-05-22T08:07:46.888Z,99.90
2023-05-22T08:10:18.974Z,99.90
2023-05-22T08:12:48.994Z,99.90
2023-05-22T08:15:18.334Z,99.90
2023-05-22T08:17:48.163Z,99.90
2023-05-22T08:20:17.497Z,99.90
2023-05-22T08:22:47.708Z,99.90
2023-05-22T08:25:18.644Z,99.90
2023-05-22T08:27:48.511Z,99.90
2023-05-22T08:30:18.028Z,99.90
2023-05-22T08:32:47.835Z,99.90
2023-05-22T08:35:17.547Z,99.90
2023-05-22T08:37:47.166Z,99.40
2023-05-22T08:40:21.853Z,95.30
2023-05-22T08:42:54.601Z,94.20
2023-05-22T08:45:26.265Z,96.30
2023-05-22T08:47:58.979Z,95.70
2023-05-22T08:50:29.034Z,93.00
2023-05-22T08:52:58.758Z,88.70
2023-05-22T08:55:29.976Z,90.60
2023-05-22T08:58:00.024Z,90.00
2023-05-22T09:00:30.125Z,89.40
2023-05-22T09:03:00.400Z,87.60
2023-05-22T09:05:29.767Z,91.40
2023-05-22T09:08:08.481Z,88.20
2023-05-22T09:10:47.410Z,86.30
2023-05-22T09:13:27.213Z,84.30
2023-05-22T09:16:01.094Z,88.20
2023-05-22T09:18:31.476Z,74.80
2023-05-22T09:21:04.915Z,73.00
2023-05-22T09:23:36.860Z,74.80
2023-05-22T09:26:07.718Z,73.00
2023-05-22T09:28:38.743Z,71.20
2023-05-22T09:31:08.076Z,63.90
2023-05-22T09:33:38.761Z,65.60
2023-05-22T09:36:12.033Z,64.90
2023-05-22T09:38:42.092Z,66.00
2023-05-22T09:41:12.868Z,65.00
2023-05-22T09:43:52.211Z,64.50
2023-05-22T09:46:21.539Z,62.10
2023-05-22T09:48:53.698Z,63.90
2023-05-22T09:51:24.758Z,63.80
2023-05-22T09:54:01.120Z,64.10
2023-05-22T09:56:38.996Z,64.10
2023-05-22T09:59:11.644Z,61.70
2023-05-22T10:01:42.934Z,63.20
2023-05-22T10:04:15.412Z,67.60
2023-05-22T10:06:48.580Z,71.50
2023-05-22T10:09:19.748Z,69.70
2023-05-22T10:11:51.875Z,68.50
2023-05-22T10:14:22.161Z,66.00
2023-05-22T10:16:52.409Z,66.00
2023-05-22T10:19:27.363Z,66.60
2023-05-22T10:21:59.687Z,67.00
2023-05-22T10:24:30.508Z,64.10
2023-05-22T10:27:01.502Z,64.00
2023-05-22T10:29:37.961Z,63.80
2023-05-22T10:32:16.498Z,61.60
2023-05-22T10:34:55.749Z,60.10
2023-05-22T10:37:41.156Z,61.80
2023-05-22T10:40:13.613Z,61.20
2023-05-22T10:42:45.548Z,60.80
2023-05-22T10:45:15.416Z,65.90
2023-05-22T10:47:44.894Z,58.80
2023-05-22T10:50:14.641Z,60.70
2023-05-22T10:52:44.351Z,66.40
2023-05-22T10:55:14.768Z,68.10
2023-05-22T10:57:45.102Z,65.50
2023-05-22T11:00:19.528Z,63.20
2023-05-22T11:02:50.075Z,61.40
2023-05-22T11:05:36.680Z,61.80
2023-05-22T11:08:31.166Z,62.40
2023-05-22T11:11:11.262Z,60.80
2023-05-22T11:13:43.895Z,60.50
2023-05-22T11:16:13.971Z,61.10
2023-05-22T11:18:45.275Z,62.30
2023-05-22T11:21:17.097Z,59.10
2023-05-22T11:23:47.611Z,58.30
2023-05-22T11:26:26.454Z,59.90
2023-05-22T11:29:00.516Z,59.80
2023-05-22T11:31:32.686Z,58.00
2023-05-22T11:34:02.675Z,58.00
2023-05-22T11:36:33.043Z,57.80
2023-05-22T11:39:01.976Z,56.00
2023-05-22T11:41:35.744Z,55.80
2023-05-22T11:44:10.687Z,55.40
2023-05-22T11:46:41.764Z,55.50
2023-05-22T11:49:13.450Z,54.40
2023-05-22T11:51:43.175Z,53.70
2023-05-22T11:54:12.903Z,55.50
2023-05-22T11:56:43.090Z,53.00
2023-05-22T11:59:13.829Z,54.40
2023-05-22T12:01:43.612Z,52.70
2023-05-22T12:04:13.040Z,53.10
2023-05-22T12:06:43.072Z,52.70
2023-05-22T12:09:12.863Z,53.10
2023-05-22T12:11:46.917Z,51.90
2023-05-22T12:14:17.905Z,53.40
2023-05-22T12:16:53.301Z,53.20
2023-05-22T12:19:23.691Z,52.60
2023-05-22T12:21:54.164Z,52.90
2023-05-22T12:24:24.664Z,51.50
2023-05-22T12:26:55.458Z,51.90
2023-05-22T12:29:26.333Z,51.40
2023-05-22T12:31:56.065Z,50.60
2023-05-22T12:34:26.815Z,50.90
2023-05-22T12:36:56.494Z,51.50
2023-05-22T12:39:25.855Z,51.80
2023-05-22T12:41:55.806Z,50.40
2023-05-22T12:44:27.749Z,50.90
2023-05-22T12:46:57.343Z,52.10
2023-05-22T12:49:26.864Z,49.50
2023-05-22T12:51:57.189Z,50.50
2023-05-22T12:54:26.555Z,50.50
2023-05-22T12:56:56.223Z,49.70
2023-05-22T12:59:27.182Z,50.30
2023-05-22T13:01:58.208Z,49.20
2023-05-22T13:04:27.512Z,48.30
2023-05-22T13:06:57.435Z,50.20
2023-05-22T13:09:26.680Z,50.10
2023-05-22T13:11:56.874Z,50.90
2023-05-22T13:14:27.478Z,50.20
2023-05-22T13:16:57.527Z,51.80
2023-05-22T13:19:27.156Z,48.00
2023-05-22T13:21:56.800Z,48.30
2023-05-22T13:24:51.979Z,46.90
2023-05-22T13:27:21.735Z,46.20
2023-05-22T13:29:52.505Z,47.60
2023-05-22T13:32:22.271Z,46.70
2023-05-22T13:34:51.524Z,47.30
2023-05-22T13:37:21.133Z,46.30
2023-05-22T13:39:50.707Z,47.90
2023-05-22T13:42:21.143Z,46.30
2023-05-22T13:44:52.178Z,47.10
2023-05-22T13:47:23.220Z,47.90
2023-05-22T13:49:52.644Z,47.40
2023-05-22T13:52:22.693Z,48.10
2023-05-22T13:54:51.973Z,48.60
2023-05-22T13:57:21.729Z,48.80
2023-05-22T13:59:52.578Z,48.90
2023-05-22T14:02:22.307Z,49.20
2023-05-22T14:04:52.336Z,49.20
2023-05-22T14:07:21.983Z,48.80
2023-05-22T14:09:51.297Z,48.50
2023-05-22T14:12:21.153Z,49.00
2023-05-22T14:14:52.321Z,48.70
2023-05-22T14:17:21.978Z,48.30
2023-05-22T14:19:51.288Z,48.30
2023-05-22T14:22:21.370Z,46.80
2023-05-22T14:24:50.688Z,48.10
2023-05-22T14:27:20.459Z,48.00
2023-05-22T14:29:49.845Z,47.90
2023-05-22T14:32:21.830Z,46.30
2023-05-22T14:34:51.502Z,47.00
2023-05-22T14:37:21.789Z,46.00
2023-05-22T14:39:51.042Z,46.70
2023-05-22T14:42:21.285Z,46.60
2023-05-22T14:44:50.598Z,46.10
2023-05-22T14:47:21.709Z,47.60
2023-05-22T14:49:51.646Z,47.10
2023-05-22T14:52:22.263Z,46.30
2023-05-22T14:54:51.700Z,46.10
2023-05-22T14:57:21.490Z,46.90
2023-05-22T14:59:51.320Z,47.20
2023-05-22T15:02:24.838Z,46.40
2023-05-22T15:04:54.502Z,46.80
2023-05-22T15:07:29.380Z,47.00
2023-05-22T15:10:05.682Z,47.30
2023-05-22T15:12:35.872Z,46.90
2023-05-22T15:15:05.714Z,47.50
2023-05-22T15:17:36.839Z,47.00
2023-05-22T15:20:07.333Z,47.30
2023-05-22T15:22:37.120Z,48.40
2023-05-22T15:25:07.911Z,48.50
2023-05-22T15:27:39.942Z,47.70
2023-05-22T15:30:12.497Z,47.90
2023-05-22T15:32:44.216Z,47.30
2023-05-22T15:35:15.368Z,47.50
2023-05-22T15:37:45.358Z,48.20
2023-05-22T15:40:17.596Z,47.70
2023-05-22T15:42:47.193Z,47.80
2023-05-22T15:45:16.603Z,47.10
2023-05-22T15:47:47.932Z,47.20
2023-05-22T15:50:17.260Z,48.00
2023-05-22T15:52:47.085Z,48.20
2023-05-22T15:55:16.443Z,48.50
2023-05-22T15:57:46.106Z,48.50
2023-05-22T16:00:18.449Z,48.80
2023-05-22T16:02:50.498Z,48.20
2023-05-22T16:05:20.046Z,49.60
2023-05-22T16:07:49.746Z,49.60
2023-05-22T16:10:19.387Z,49.50
2023-05-22T16:12:49.017Z,49.80
2023-05-22T16:15:18.487Z,49.90
2023-05-22T16:17:50.117Z,51.00
2023-05-22T16:20:21.246Z,51.70
2023-05-22T16:22:52.136Z,51.00
2023-05-22T16:25:21.419Z,51.30
2023-05-22T16:27:51.300Z,51.60
2023-05-22T16:30:21.693Z,51.20
2023-05-22T16:32:52.956Z,51.70
2023-05-22T16:35:22.505Z,50.30
2023-05-22T16:37:52.777Z,50.90
2023-05-22T16:40:22.147Z,52.20
2023-05-22T16:42:51.996Z,51.30
2023-05-22T16:45:21.325Z,51.00
2023-05-22T16:47:55.681Z,51.00
2023-05-22T16:50:25.238Z,50.30
2023-05-22T16:52:55.037Z,51.30
2023-05-22T16:55:24.352Z,52.10
2023-05-22T16:57:53.970Z,52.90
2023-05-22T17:00:23.492Z,52.70
2023-05-22T17:02:56.178Z,53.30
2023-05-22T17:05:25.905Z,53.60
2023-05-22T17:07:55.796Z,54.00
2023-05-22T17:10:25.269Z,53.90
2023-05-22T17:12:54.937Z,55.10
2023-05-22T17:15:24.222Z,54.10
2023-05-22T17:17:55.768Z,54.60
2023-05-22T17:20:25.100Z,55.80
2023-05-22T17:22:54.733Z,56.20
2023-05-22T17:25:24.106Z,56.20
2023-05-22T17:27:53.735Z,56.40
2023-05-22T17:30:23.050Z,56.90
2023-05-22T17:32:53.683Z,58.30
2023-05-22T17:35:24.149Z,58.70
2023-05-22T17:37:54.091Z,60.00
2023-05-22T17:40:32.603Z,61.90
2023-05-22T17:43:06.675Z,63.00
2023-05-22T17:45:35.920Z,64.40
2023-05-22T17:48:05.707Z,65.50
2023-05-22T17:50:36.702Z,66.70
2023-05-22T17:53:06.575Z,67.60
2023-05-22T17:55:36.371Z,68.30
2023-05-22T17:58:06.553Z,68.90
2023-05-22T18:00:36.140Z,68.70
2023-05-22T18:03:06.198Z,69.50
2023-05-22T18:05:37.588Z,70.00
2023-05-22T18:08:07.247Z,71.20
2023-05-22T18:10:36.763Z,73.90
2023-05-22T18:13:06.624Z,76.60
2023-05-22T18:15:36.418Z,79.90
2023-05-22T18:18:06.633Z,85.10
2023-05-22T18:20:38.006Z,90.20
2023-05-22T18:23:08.133Z,93.30
2023-05-22T18:25:37.417Z,95.50
2023-05-22T18:28:08.470Z,96.80
2023-05-22T18:30:37.917Z,98.90
2023-05-22T18:33:08.236Z,99.90
2023-05-22T18:35:39.085Z,99.90
2023-05-22T18:38:08.787Z,99.90
2023-05-22T18:40:38.467Z,99.90
2023-05-22T18:43:08.271Z,99.90
2023-05-22T18:45:37.640Z,99.90
2023-05-22T18:48:07.398Z,99.90
2023-05-22T18:50:38.589Z,99.90
2023-05-22T18:53:08.322Z,99.90
2023-05-22T18:55:37.576Z,99.90
2023-05-22T18:58:07.573Z,99.90
2023-05-22T19:00:38.350Z,99.90
2023-05-22T19:03:11.584Z,99.90
2023-05-22T19:05:42.432Z,99.90
2023-05-22T19:08:12.046Z,99.90
2023-05-22T19:10:42.182Z,99.90
2023-05-22T19:13:12.948Z,99.90
2023-05-22T19:15:42.581Z,99.90
2023-05-22T19:18:13.159Z,99.90
2023-05-22T19:20:44.094Z,99.90
2023-05-22T19:23:14.216Z,99.90
2023-05-22T19:25:43.506Z,99.90
2023-05-22T19:28:13.161Z,99.90
2023-05-22T19:30:42.804Z,99.90
2023-05-22T19:33:14.995Z,99.90
2023-05-22T19:35:46.131Z,99.90
2023-05-22T19:38:15.945Z,99.90
2023-05-22T19:40:45.200Z,99.90
2023-05-22T19:43:15.233Z,99.90
2023-05-22T19:45:45.565Z,99.90
2023-05-22T19:48:15.762Z,99.90
2023-05-22T19:50:47.044Z,99.90
2023-05-22T19:53:16.859Z,99.90
2023-05-22T19:55:46.310Z,99.90
2023-05-22T19:58:15.934Z,99.90
2023-05-22T20:00:47.335Z,99.90
2023-05-22T20:03:17.250Z,99.90
2023-05-22T20:05:48.207Z,99.90
2023-05-22T20:08:17.900Z,99.90
2023-05-22T20:10:47.668Z,99.90
2023-05-22T20:13:17.705Z,99.90
2023-05-22T20:15:50.354Z,99.90
2023-05-22T20:18:21.141Z,99.90
2023-05-22T20:20:51.962Z,99.90
2023-05-22T20:23:22.094Z,99.90
2023-05-22T20:25:51.722Z,99.90
2023-05-22T20:28:21.713Z,99.90
2023-05-22T20:30:51.784Z,99.90
2023-05-22T20:33:21.591Z,99.90
2023-05-22T20:35:53.354Z,99.90
2023-05-22T20:38:23.112Z,99.90
2023-05-22T20:40:52.497Z,99.90
2023-05-22T20:43:22.175Z,99.90
2023-05-22T20:45:51.914Z,99.90
2023-05-22T20:48:22.013Z,99.90
2023-05-22T20:50:52.739Z,99.90
2023-05-22T20:53:22.502Z,99.90
2023-05-22T20:55:53.445Z,99.90
2023-05-22T20:58:23.255Z,99.90
2023-05-22T21:00:52.601Z,99.90
2023-05-22T21:03:24.181Z,99.90
2023-05-22T21:05:56.817Z,99.90
2023-05-22T21:08:26.471Z,99.90
2023-05-22T21:10:56.278Z,99.90
2023-05-22T21:13:26.082Z,99.90
2023-05-22T21:15:55.383Z,99.90
2023-05-22T21:18:25.172Z,99.90
2023-05-22T21:20:55.988Z,99.90
2023-05-22T21:23:25.984Z,99.90
2023-05-22T21:25:55.465Z,99.90
2023-05-22T21:28:25.644Z,99.90
2023-05-22T21:30:54.938Z,99.90
2023-05-22T21:33:24.565Z,99.90
2023-05-22T21:35:57.143Z,99.90
2023-05-22T21:38:27.454Z,99.90
2023-05-22T21:40:57.014Z,99.90
2023-05-22T21:43:26.935Z,99.90
2023-05-22T21:45:56.383Z,99.90
2023-05-22T21:48:26.171Z,99.90
2023-05-22T21:50:56.937Z,99.90
2023-05-22T21:53:26.821Z,99.90
2023-05-22T21:55:56.095Z,99.90
2023-05-22T21:58:26.081Z,99.90
2023-05-22T22:00:55.393Z,99.90
2023-05-22T22:03:25.301Z,99.90
2023-05-22T22:05:56.271Z,99.90
2023-05-22T22:08:28.487Z,99.90
2023-05-22T22:10:58.568Z,99.90
2023-05-22T22:13:28.546Z,99.90
2023-05-22T22:15:59.701Z,99.90
2023-05-22T22:18:32.565Z,99.90
2023-05-22T22:21:03.581Z,99.90
2023-05-22T22:23:33.325Z,99.90
2023-05-22T22:26:02.724Z,99.90
2023-05-22T22:28:32.748Z,99.90
2023-05-22T22:31:02.148Z,99.90
2023-05-22T22:33:33.052Z,99.90
2023-05-22T22:36:03.791Z,99.90
2023-05-22T22:38:35.408Z,99.90
2023-05-22T22:41:05.056Z,99.90
2023-05-22T22:43:34.688Z,99.90
2023-05-22T22:46:04.032Z,99.90
2023-05-22T22:48:34.357Z,99.90
2023-05-22T22:51:05.306Z,99.90
2023-05-22T22:53:34.959Z,99.90
2023-05-22T22:56:04.534Z,99.90
2023-05-22T22:58:34.470Z,99.90
2023-05-22T23:01:05.344Z,99.90
2023-05-22T23:03:35.032Z,99.90
2023-05-22T23:06:06.650Z,99.90
2023-05-22T23:08:36.996Z,99.90
2023-05-22T23:11:06.318Z,99.90
2023-05-22T23:13:36.044Z,99.90
2023-05-22T23:16:05.459Z,99.90
2023-05-22T23:18:35.112Z,99.90
2023-05-22T23:21:06.048Z,99.90
2023-05-22T23:23:35.733Z,99.90
2023-05-22T23:26:05.161Z,99.90
2023-05-22T23:28:36.843Z,99.90
2023-05-22T23:31:06.374Z,99.90
2023-05-22T23:33:36.446Z,99.90
2023-05-22T23:36:07.398Z,99.90
2023-05-22T23:38:37.442Z,99.90
2023-05-22T23:41:06.817Z,99.90
2023-05-22T23:43:36.806Z,99.90
2023-05-22T23:46:08.365Z,99.90
2023-05-22T23:48:38.641Z,99.90
2023-05-22T23:51:10.446Z,99.90
2023-05-22T23:53:40.249Z,99.90
2023-05-22T23:56:09.848Z,99.90
2023-05-22T23:58:39.714Z,99.90
